This is the latest recevied weather packets stored in our database for station/object K1BWE-1. If no packets are shown the sender has not sent any weather packets the latest 10 day(s).
| Time | Temp. | Humidity | Pressure | Rain* | Wind** | Luminosity | Snow |
|---|---|---|---|---|---|---|---|
| 1778016873 | 21.67° C | 39% | 1012.2 hPa | 0 mm | - | 742 W/m² | - |
| 1778016569 | 21.67° C | 41% | 1012.2 hPa | 0 mm | - | 815 W/m² | - |
| 1778016266 | 21.11° C | 44% | 1012.4 hPa | 0 mm | - | 332 W/m² | - |
| 1778015962 | 20.56° C | 45% | 1012.1 hPa | 0 mm | - | 759 W/m² | - |
| 1778015660 | 21.11° C | 45% | 1012.8 hPa | 0 mm | - | 357 W/m² | - |
| 1778015356 | 21.11° C | 46% | 1012.5 hPa | 0 mm | - | 811 W/m² | - |
| 1778015054 | 20° C | 49% | 1012.7 hPa | 0 mm | - | 150 W/m² | - |
| 1778014750 | 20.56° C | 49% | 1012.8 hPa | 0 mm | - | 145 W/m² | - |
| 1778014449 | 20° C | 52% | 1012.8 hPa | 0 mm | - | 804 W/m² | - |
| 1778014145 | 20° C | 51% | 1012.9 hPa | 0 mm | - | 153 W/m² | - |
| 1778013843 | 20.56° C | 51% | 1012.8 hPa | 0 mm | - | 150 W/m² | - |
| 1778013540 | 21.67° C | 48% | 1012.7 hPa | 0 mm | - | 189 W/m² | - |
| 1778013236 | 21.11° C | 49% | 1012.8 hPa | 0 mm | - | 853 W/m² | - |
| 1778012933 | 21.67° C | 46% | 1012.7 hPa | 0 mm | - | 212 W/m² | - |
| 1778012629 | 22.78° C | 43% | 1012.5 hPa | 0 mm | - | 190 W/m² | - |
| 1778012326 | 22.22° C | 44% | 1012.9 hPa | 0 mm | - | 840 W/m² | - |
| 1778012023 | 21.67° C | 50% | 1013 hPa | 0 mm | - | 819 W/m² | - |
| 1778011722 | 21.67° C | 45% | 1012.7 hPa | 0 mm | - | 818 W/m² | - |
| 1778011418 | 21.67° C | 51% | 1013.1 hPa | 0 mm | - | 776 W/m² | - |
| 1778011114 | 21.11° C | 53% | 1012.9 hPa | 0 mm | - | 517 W/m² | - |
| 1778010811 | 21.11° C | 52% | 1013.1 hPa | 0 mm | - | 847 W/m² | - |
| 1778010508 | 19.44° C | 57% | 1013.2 hPa | 0 mm | - | 819 W/m² | - |
| 1778010205 | 20° C | 58% | 1013.3 hPa | 0 mm | - | 103 W/m² | - |
| 1778009900 | 20.56° C | 52% | 1013 hPa | 0 mm | - | 249 W/m² | - |
| 1778009598 | 20° C | 56% | 1013.3 hPa | 0 mm | - | 478 W/m² | - |
* Rain latest hour (hover to see other rain measurements)
** Current wind speed in m/s (hover to see current wind gust speed)